Time;durP1;ratioP1;P1;durP2;ratioP2;P2;SDS_P1;SDS_P2;PMS_P1;PMS_P2;Temp;Humidity;BMP_temperature;BMP_pressure;BME280_temperature;BME280_humidity;BME280_pressure;Samples;Min_cycle;Max_cycle;Signal;HPM_P1;HPM_P2
2023/01/05 00:01:09;;;;;;;694.07;284.87;;;;;;;;;;5044223;28;20202;-55
2023/01/05 00:03:36;;;;;;;650.90;272.40;;;;;;;;;;5043553;28;20325;-55
2023/01/05 00:06:03;;;;;;;664.60;278.03;;;;;;;;;;5061849;28;20534;-56
2023/01/05 00:08:29;;;;;;;603.43;252.03;;;;;;;;;;5061466;28;20225;-55
2023/01/05 00:24:41;;;;;;;701.87;285.63;;;;;;;;;;5060946;28;20233;-54
2023/01/05 00:27:07;;;;;;;626.50;259.17;;;;;;;;;;5043045;28;20226;-55
2023/01/05 00:29:34;;;;;;;642.17;256.27;;;;;;;;;;5043149;28;20213;-54
2023/01/05 00:32:00;;;;;;;702.47;284.83;;;;;;;;;;5042646;28;20211;-55
2023/01/05 00:34:26;;;;;;;665.73;272.23;;;;;;;;;;5043406;28;20228;-55
2023/01/05 00:36:52;;;;;;;721.93;286.07;;;;;;;;;;5042303;28;20218;-54
2023/01/05 00:39:18;;;;;;;637.40;258.57;;;;;;;;;;5042793;28;20246;-55
2023/01/05 00:41:44;;;;;;;604.73;244.53;;;;;;;;;;5042841;28;20241;-55
2023/01/05 00:44:10;;;;;;;623.30;242.73;;;;;;;;;;5060594;28;20222;-55
2023/01/05 00:46:39;;;;;;;695.23;287.17;;;;;;;;;;5042603;28;20313;-56
2023/01/05 00:49:05;;;;;;;705.57;280.33;;;;;;;;;;5060945;28;20704;-55
2023/01/05 00:51:31;;;;;;;629.73;257.47;;;;;;;;;;5060114;28;20515;-55
2023/01/05 00:53:57;;;;;;;666.03;265.23;;;;;;;;;;5042227;28;20224;-53
2023/01/05 00:56:23;;;;;;;603.37;243.30;;;;;;;;;;5061250;28;20210;-53
2023/01/05 00:58:52;;;;;;;647.27;263.67;;;;;;;;;;5042347;28;20206;-53
2023/01/05 01:01:19;;;;;;;675.23;278.40;;;;;;;;;;5043317;28;20582;-55
2023/01/05 01:03:45;;;;;;;617.87;242.10;;;;;;;;;;5042343;28;20284;-55
2023/01/05 01:06:11;;;;;;;699.07;275.30;;;;;;;;;;5042659;28;20280;-55
2023/01/05 01:08:37;;;;;;;722.40;290.23;;;;;;;;;;5059933;28;20298;-55
2023/01/05 01:11:06;;;;;;;645.67;266.40;;;;;;;;;;5042286;28;20330;-55
2023/01/05 01:13:32;;;;;;;659.13;270.37;;;;;;;;;;5042697;28;20209;-55
2023/01/05 01:16:05;;;;;;;669.33;260.67;;;;;;;;;;5061499;28;20182;-55
2023/01/05 01:18:31;;;;;;;575.63;230.83;;;;;;;;;;5043163;28;20291;-53
2023/01/05 01:20:57;;;;;;;653.17;263.63;;;;;;;;;;5060153;28;20790;-52
2023/01/05 01:23:23;;;;;;;580.70;241.70;;;;;;;;;;5060746;28;20760;-55
2023/01/05 01:25:49;;;;;;;651.97;266.33;;;;;;;;;;5059925;28;20213;-55
2023/01/05 01:28:15;;;;;;;594.70;241.73;;;;;;;;;;5060585;28;20228;-56
2023/01/05 01:30:42;;;;;;;679.83;282.97;;;;;;;;;;5041917;28;20302;-55
2023/01/05 01:33:08;;;;;;;555.53;226.07;;;;;;;;;;5060002;28;20218;-54
2023/01/05 01:35:36;;;;;;;586.27;239.53;;;;;;;;;;5060623;28;20288;-55
2023/01/05 01:38:02;;;;;;;592.57;235.07;;;;;;;;;;5061393;28;20215;-54
2023/01/05 01:40:28;;;;;;;582.30;235.97;;;;;;;;;;5060942;28;20258;-53
2023/01/05 01:42:54;;;;;;;646.13;266.80;;;;;;;;;;5060253;28;20341;-53
2023/01/05 01:45:22;;;;;;;597.33;239.53;;;;;;;;;;5041973;28;20222;-54
2023/01/05 01:47:51;;;;;;;719.97;283.30;;;;;;;;;;5059141;28;20217;-55
2023/01/05 01:50:19;;;;;;;609.97;243.20;;;;;;;;;;5059248;28;20210;-54
2023/01/05 01:52:47;;;;;;;644.43;256.67;;;;;;;;;;5059150;28;20500;-54
2023/01/05 01:55:13;;;;;;;696.87;283.70;;;;;;;;;;5042166;28;20266;-54
2023/01/05 01:57:39;;;;;;;670.60;261.07;;;;;;;;;;5058771;28;20245;-55
2023/01/05 02:00:07;;;;;;;598.20;238.93;;;;;;;;;;5042586;28;20221;-54
2023/01/05 02:02:33;;;;;;;587.83;240.27;;;;;;;;;;5041617;28;20633;-54
2023/01/05 02:05:06;;;;;;;679.70;273.03;;;;;;;;;;5059872;28;20215;-53
2023/01/05 02:07:33;;;;;;;557.23;227.87;;;;;;;;;;5042533;28;20185;-54
2023/01/05 02:10:03;;;;;;;631.67;254.67;;;;;;;;;;5060124;28;20575;-54
2023/01/05 02:12:38;;;;;;;542.80;219.73;;;;;;;;;;5041938;28;20715;-54
2023/01/05 02:15:04;;;;;;;594.43;234.03;;;;;;;;;;5060097;28;20291;-54
2023/01/05 02:17:30;;;;;;;587.23;239.20;;;;;;;;;;5059025;28;20515;-54
2023/01/05 02:20:15;;;;;;;659.87;266.53;;;;;;;;;;5059747;28;20249;-53
2023/01/05 02:22:47;;;;;;;593.60;242.63;;;;;;;;;;5058243;28;20202;-54
2023/01/05 02:25:15;;;;;;;671.23;267.50;;;;;;;;;;5058670;28;20176;-54
2023/01/05 02:27:50;;;;;;;628.27;248.00;;;;;;;;;;5040219;28;20618;-53
2023/01/05 02:30:38;;;;;;;637.23;268.67;;;;;;;;;;5059369;28;20232;-54
2023/01/05 02:33:07;;;;;;;571.60;233.77;;;;;;;;;;5040083;28;20218;-54
2023/01/05 02:35:42;;;;;;;601.50;240.47;;;;;;;;;;5039900;28;20521;-55
2023/01/05 02:38:21;;;;;;;619.60;255.33;;;;;;;;;;5059161;28;20296;-54
2023/01/05 02:40:49;;;;;;;650.43;269.17;;;;;;;;;;5058440;28;20206;-54
2023/01/05 02:43:19;;;;;;;620.20;259.87;;;;;;;;;;5059218;28;20187;-54
2023/01/05 02:45:46;;;;;;;666.03;265.67;;;;;;;;;;5039802;28;20225;-54
2023/01/05 02:48:12;;;;;;;582.37;237.27;;;;;;;;;;5061682;28;20238;-54
2023/01/05 02:50:59;;;;;;;644.73;265.27;;;;;;;;;;5062739;28;20271;-54
2023/01/05 02:53:44;;;;;;;658.03;262.77;;;;;;;;;;5063246;28;20306;-54
2023/01/05 02:56:32;;;;;;;572.03;231.13;;;;;;;;;;5063127;28;20267;-54
2023/01/05 02:59:06;;;;;;;650.13;257.63;;;;;;;;;;5062292;28;20278;-54
2023/01/05 03:01:35;;;;;;;628.43;243.17;;;;;;;;;;5063212;28;20229;-54
2023/01/05 03:04:04;;;;;;;688.47;277.50;;;;;;;;;;5061870;28;20308;-55
2023/01/05 03:06:37;;;;;;;582.83;227.57;;;;;;;;;;5043583;28;20211;-54
2023/01/05 03:09:04;;;;;;;608.00;242.37;;;;;;;;;;5044075;28;20202;-54
2023/01/05 03:14:42;;;;;;;575.07;228.40;;;;;;;;;;5052051;28;20690;-55
2023/01/05 03:17:11;;;;;;;574.53;237.97;;;;;;;;;;5061500;28;20683;-54
2023/01/05 03:19:42;;;;;;;618.43;260.27;;;;;;;;;;5044248;28;20190;-54
2023/01/05 03:36:08;;;;;;;673.73;279.60;;;;;;;;;;5040307;28;20238;-54
2023/01/05 03:38:36;;;;;;;574.27;229.20;;;;;;;;;;5042019;28;20275;-54
2023/01/05 03:41:03;;;;;;;680.23;276.07;;;;;;;;;;5023753;28;20216;-54
2023/01/05 03:43:32;;;;;;;568.53;224.03;;;;;;;;;;5024987;28;20208;-54
2023/01/05 03:45:58;;;;;;;603.20;245.90;;;;;;;;;;5042137;28;20610;-55
2023/01/05 03:48:25;;;;;;;595.47;234.90;;;;;;;;;;5041805;28;20218;-54
2023/01/05 03:50:51;;;;;;;589.00;233.73;;;;;;;;;;5042410;28;20281;-55
2023/01/05 03:53:17;;;;;;;634.97;259.60;;;;;;;;;;5041813;28;20586;-54
2023/01/05 03:55:43;;;;;;;595.33;243.20;;;;;;;;;;5023972;28;20207;-54
2023/01/05 03:58:09;;;;;;;653.90;271.37;;;;;;;;;;5042140;28;20168;-54
2023/01/05 04:00:35;;;;;;;568.67;233.33;;;;;;;;;;5045604;28;20281;-55
2023/01/05 04:03:02;;;;;;;590.67;244.53;;;;;;;;;;5062314;28;20272;-56
2023/01/05 04:05:28;;;;;;;636.83;258.90;;;;;;;;;;5062321;28;20202;-55
2023/01/05 04:07:54;;;;;;;646.93;264.63;;;;;;;;;;5043196;28;20211;-54
2023/01/05 04:10:21;;;;;;;558.27;228.80;;;;;;;;;;5045175;28;20175;-55
2023/01/05 04:12:48;;;;;;;559.33;230.77;;;;;;;;;;5058913;28;20210;-54
2023/01/05 04:15:14;;;;;;;672.30;267.13;;;;;;;;;;5082494;28;20532;-55
2023/01/05 04:17:40;;;;;;;585.53;239.37;;;;;;;;;;5064048;28;20610;-54
2023/01/05 04:20:07;;;;;;;667.57;273.80;;;;;;;;;;5082392;28;20206;-55
2023/01/05 04:22:33;;;;;;;554.17;225.33;;;;;;;;;;5064382;28;20217;-53
2023/01/05 04:24:59;;;;;;;567.07;229.93;;;;;;;;;;5083175;28;20174;-54
2023/01/05 04:27:25;;;;;;;567.43;229.47;;;;;;;;;;5082815;28;20222;-56
2023/01/05 04:29:51;;;;;;;642.83;269.87;;;;;;;;;;5082375;28;20225;-54
2023/01/05 04:32:17;;;;;;;621.47;250.43;;;;;;;;;;5063770;28;20271;-56
2023/01/05 04:34:43;;;;;;;542.20;220.50;;;;;;;;;;5081939;28;20177;-55
2023/01/05 04:37:10;;;;;;;637.03;262.10;;;;;;;;;;5082591;28;20166;-55
2023/01/05 04:39:36;;;;;;;573.33;238.70;;;;;;;;;;5081213;28;20236;-55
2023/01/05 04:42:02;;;;;;;619.00;254.33;;;;;;;;;;5063763;28;20821;-55
2023/01/05 04:44:28;;;;;;;603.27;247.50;;;;;;;;;;5064043;28;20293;-55
2023/01/05 04:46:54;;;;;;;543.77;219.43;;;;;;;;;;5082422;28;20206;-54
2023/01/05 04:49:20;;;;;;;617.03;256.57;;;;;;;;;;5082975;28;20594;-53
2023/01/05 04:51:49;;;;;;;568.27;230.10;;;;;;;;;;5063580;28;20236;-56
2023/01/05 04:54:16;;;;;;;625.23;253.27;;;;;;;;;;5081307;28;20735;-55
2023/01/05 04:56:42;;;;;;;551.37;218.07;;;;;;;;;;5081962;28;20773;-54
2023/01/05 04:59:08;;;;;;;669.80;269.93;;;;;;;;;;5081592;28;20214;-55
2023/01/05 05:01:34;;;;;;;671.73;264.40;;;;;;;;;;5062573;28;20208;-55
2023/01/05 05:04:09;;;;;;;633.57;251.73;;;;;;;;;;5082337;28;20694;-55
2023/01/05 05:06:35;;;;;;;564.10;224.00;;;;;;;;;;5082141;28;20271;-55
2023/01/05 05:09:04;;;;;;;635.17;255.03;;;;;;;;;;5081768;28;20210;-55
2023/01/05 05:11:30;;;;;;;628.97;251.33;;;;;;;;;;5059844;28;20330;-55
2023/01/05 05:13:56;;;;;;;612.80;248.30;;;;;;;;;;5060907;28;20206;-55
2023/01/05 05:16:23;;;;;;;587.77;239.20;;;;;;;;;;5056852;28;20317;-55
2023/01/05 05:18:49;;;;;;;531.47;218.87;;;;;;;;;;5040459;28;20218;-55
2023/01/05 05:21:15;;;;;;;573.00;232.87;;;;;;;;;;5040971;28;20219;-56
2023/01/05 05:23:41;;;;;;;575.57;231.40;;;;;;;;;;5040972;28;20224;-54
2023/01/05 05:28:41;;;;;;;586.00;280.83;;;;;;;;;;5026914;27;20276;-51
2023/01/05 05:31:13;;;;;;;641.37;296.57;;;;;;;;;;4993193;28;20657;-50
2023/01/05 05:33:42;;;;;;;607.17;275.30;;;;;;;;;;4981218;28;20215;-49
2023/01/05 05:36:08;;;;;;;662.47;311.37;;;;;;;;;;4971948;28;20333;-49
2023/01/05 05:38:35;;;;;;;674.20;305.27;;;;;;;;;;4968534;28;20220;-50
2023/01/05 05:41:01;;;;;;;677.43;302.07;;;;;;;;;;4968210;28;21817;-50
2023/01/05 05:43:27;;;;;;;661.87;306.67;;;;;;;;;;4943854;28;20292;-49
2023/01/05 05:45:54;;;;;;;640.57;288.43;;;;;;;;;;4973928;28;20209;-49
2023/01/05 05:48:20;;;;;;;727.27;326.37;;;;;;;;;;4968273;28;20220;-50
2023/01/05 05:50:46;;;;;;;656.07;289.70;;;;;;;;;;4960527;28;20285;-49
2023/01/05 05:53:13;;;;;;;734.10;329.20;;;;;;;;;;4955037;28;20632;-49
2023/01/05 05:55:39;;;;;;;650.47;291.47;;;;;;;;;;4970273;28;20189;-53
2023/01/05 05:58:05;;;;;;;654.23;294.53;;;;;;;;;;4960635;28;20184;-50
2023/01/05 06:00:31;;;;;;;674.63;300.97;;;;;;;;;;4972801;28;20245;-49
2023/01/05 06:02:58;;;;;;;805.47;365.80;;;;;;;;;;4954549;28;20352;-50
2023/01/05 06:05:24;;;;;;;694.10;304.70;;;;;;;;;;4954903;28;20813;-50
2023/01/05 06:07:50;;;;;;;655.10;285.90;;;;;;;;;;4967009;28;20373;-49
2023/01/05 06:10:16;;;;;;;720.70;318.40;;;;;;;;;;4977472;28;20550;-49
2023/01/05 06:12:42;;;;;;;720.67;309.10;;;;;;;;;;4972189;28;20260;-49
2023/01/05 06:15:09;;;;;;;758.33;332.60;;;;;;;;;;4964227;28;20217;-49
2023/01/05 06:17:35;;;;;;;667.80;291.20;;;;;;;;;;4949765;28;20260;-50
2023/01/05 06:20:02;;;;;;;698.57;306.67;;;;;;;;;;4963375;28;20228;-49
2023/01/05 06:22:28;;;;;;;811.50;370.90;;;;;;;;;;4964965;28;20209;-55
2023/01/05 06:24:54;;;;;;;776.20;338.17;;;;;;;;;;4965737;28;20213;-52
2023/01/05 06:27:20;;;;;;;790.87;346.23;;;;;;;;;;4940870;28;20336;-52
2023/01/05 06:29:47;;;;;;;798.23;349.97;;;;;;;;;;4961119;28;20657;-51
2023/01/05 06:32:13;;;;;;;770.33;336.63;;;;;;;;;;4932836;28;20775;-52
2023/01/05 06:34:39;;;;;;;830.07;364.50;;;;;;;;;;4923936;28;20566;-52
2023/01/05 06:37:05;;;;;;;836.77;366.60;;;;;;;;;;4943576;28;20187;-51
2023/01/05 06:39:32;;;;;;;779.50;329.10;;;;;;;;;;4968014;28;20221;-51
2023/01/05 06:41:58;;;;;;;752.53;326.67;;;;;;;;;;4947110;28;20217;-50
2023/01/05 06:44:25;;;;;;;852.13;365.40;;;;;;;;;;4941626;28;20694;-49
2023/01/05 06:49:13;;;;;;;747.63;340.30;;;;;;;;;;5033423;27;20984;-51
2023/01/05 06:51:39;;;;;;;676.03;307.17;;;;;;;;;;5008616;28;21716;-51
2023/01/05 06:54:06;;;;;;;594.90;280.33;;;;;;;;;;5015113;28;20439;-51
2023/01/05 06:56:33;;;;;;;732.00;327.47;;;;;;;;;;5004884;28;20218;-50
2023/01/05 06:58:59;;;;;;;703.27;324.10;;;;;;;;;;5021494;28;20304;-51
2023/01/05 07:01:25;;;;;;;744.33;337.87;;;;;;;;;;5015085;28;20243;-51
2023/01/05 07:03:51;;;;;;;773.63;351.80;;;;;;;;;;5030228;28;20281;-51
2023/01/05 07:06:18;;;;;;;724.87;320.30;;;;;;;;;;5021077;28;20309;-51
2023/01/05 07:08:44;;;;;;;769.17;353.90;;;;;;;;;;5005222;28;20358;-50
2023/01/05 07:11:10;;;;;;;851.33;394.23;;;;;;;;;;5015106;28;20853;-51
2023/01/05 07:13:37;;;;;;;789.63;366.70;;;;;;;;;;5007931;28;20304;-50
2023/01/05 07:16:03;;;;;;;843.67;383.83;;;;;;;;;;5006947;28;20194;-51
2023/01/05 07:18:31;;;;;;;690.37;296.07;;;;;;;;;;5024901;28;20362;-51
2023/01/05 07:21:04;;;;;;;782.93;350.67;;;;;;;;;;5008488;28;20230;-51
2023/01/05 07:23:30;;;;;;;863.40;398.77;;;;;;;;;;5012075;28;20919;-51
2023/01/05 07:26:00;;;;;;;800.10;361.37;;;;;;;;;;5005154;28;20278;-50
2023/01/05 07:28:26;;;;;;;758.97;333.43;;;;;;;;;;5031353;28;20225;-51
2023/01/05 07:30:52;;;;;;;816.03;380.27;;;;;;;;;;5023283;28;20210;-51
2023/01/05 07:33:19;;;;;;;801.13;360.43;;;;;;;;;;5015361;28;20223;-50
2023/01/05 07:35:45;;;;;;;845.10;385.67;;;;;;;;;;5009653;28;20285;-51
2023/01/05 07:38:11;;;;;;;794.87;369.57;;;;;;;;;;5006310;28;20366;-50
2023/01/05 07:40:47;;;;;;;854.57;388.33;;;;;;;;;;5013961;28;20214;-49
2023/01/05 07:43:13;;;;;;;794.73;358.73;;;;;;;;;;5005823;28;20307;-51
2023/01/05 07:45:39;;;;;;;788.00;359.27;;;;;;;;;;4999553;28;21973;-50
2023/01/05 07:48:06;;;;;;;858.60;383.63;;;;;;;;;;5000945;28;21126;-49
2023/01/05 07:50:38;;;;;;;777.50;343.10;;;;;;;;;;5009143;28;20313;-50
2023/01/05 07:53:04;;;;;;;776.43;345.60;;;;;;;;;;5009089;28;20719;-50
2023/01/05 07:55:30;;;;;;;874.17;399.47;;;;;;;;;;5034351;28;20183;-50
2023/01/05 07:57:57;;;;;;;774.70;334.93;;;;;;;;;;5032172;28;20219;-51
2023/01/05 08:00:23;;;;;;;773.67;353.53;;;;;;;;;;5025631;28;21820;-51
2023/01/05 08:02:52;;;;;;;651.03;285.53;;;;;;;;;;5014245;28;20619;-50
2023/01/05 08:05:18;;;;;;;680.80;299.57;;;;;;;;;;5026497;28;20219;-51
2023/01/05 08:07:44;;;;;;;687.90;308.90;;;;;;;;;;5030133;28;20187;-51
2023/01/05 08:10:29;;;;;;;668.40;294.57;;;;;;;;;;5033142;28;20183;-51
2023/01/05 08:15:40;;;;;;;684.57;299.40;;;;;;;;;;5032904;28;20215;-50
2023/01/05 08:18:06;;;;;;;745.03;326.70;;;;;;;;;;5033456;28;20219;-50
2023/01/05 08:20:33;;;;;;;779.27;342.30;;;;;;;;;;5031820;28;20226;-51
2023/01/05 08:22:59;;;;;;;716.03;309.60;;;;;;;;;;5029184;28;20458;-51
2023/01/05 08:25:26;;;;;;;707.63;302.13;;;;;;;;;;5030824;28;20340;-51
2023/01/05 08:27:53;;;;;;;736.33;322.93;;;;;;;;;;5029829;28;20580;-51
2023/01/05 08:30:19;;;;;;;799.03;361.33;;;;;;;;;;5002399;28;20334;-49
2023/01/05 08:32:48;;;;;;;746.30;326.53;;;;;;;;;;5014733;28;23054;-52
2023/01/05 08:35:14;;;;;;;750.93;340.60;;;;;;;;;;5008119;28;20938;-51
2023/01/05 08:37:43;;;;;;;744.30;330.07;;;;;;;;;;4983323;28;20354;-50
2023/01/05 08:40:10;;;;;;;701.90;319.30;;;;;;;;;;4997278;28;20183;-49
2023/01/05 08:42:36;;;;;;;729.03;319.90;;;;;;;;;;4986559;28;20899;-52
2023/01/05 08:45:03;;;;;;;761.10;339.13;;;;;;;;;;4981415;28;20465;-51
2023/01/05 08:47:29;;;;;;;945.40;428.97;;;;;;;;;;4980040;28;20267;-50
2023/01/05 08:49:55;;;;;;;774.80;326.30;;;;;;;;;;5006588;28;20741;-51
2023/01/05 08:52:24;;;;;;;759.93;329.73;;;;;;;;;;4992513;28;20310;-51
2023/01/05 08:54:51;;;;;;;793.93;346.67;;;;;;;;;;4994890;28;20734;-51
2023/01/05 08:57:17;;;;;;;886.00;393.43;;;;;;;;;;4987385;28;20296;-51
2023/01/05 08:59:44;;;;;;;773.37;347.43;;;;;;;;;;4995623;28;20211;-51
2023/01/05 09:02:12;;;;;;;709.70;309.20;;;;;;;;;;5013669;28;20314;-50
2023/01/05 09:04:38;;;;;;;774.40;335.50;;;;;;;;;;5010438;28;20231;-52
2023/01/05 09:07:04;;;;;;;731.60;319.43;;;;;;;;;;5012530;28;20203;-51
2023/01/05 09:09:30;;;;;;;829.47;370.70;;;;;;;;;;5006333;28;20651;-51
2023/01/05 09:11:57;;;;;;;756.47;325.57;;;;;;;;;;5005814;28;20218;-51
2023/01/05 09:14:23;;;;;;;778.57;340.53;;;;;;;;;;5005960;28;20219;-52
2023/01/05 09:16:49;;;;;;;749.30;324.50;;;;;;;;;;4999363;28;20220;-51
2023/01/05 09:19:15;;;;;;;788.47;334.87;;;;;;;;;;5010789;28;20337;-51
2023/01/05 09:21:41;;;;;;;756.23;332.90;;;;;;;;;;4990420;28;20821;-50
2023/01/05 09:24:07;;;;;;;785.00;355.80;;;;;;;;;;4996738;28;20727;-50
2023/01/05 09:26:34;;;;;;;873.63;389.80;;;;;;;;;;4996673;28;20553;-52
2023/01/05 09:29:00;;;;;;;860.30;379.10;;;;;;;;;;4990697;28;20223;-51
2023/01/05 09:31:27;;;;;;;794.07;344.87;;;;;;;;;;4986504;28;20898;-51
2023/01/05 09:33:53;;;;;;;789.53;325.70;;;;;;;;;;5002486;28;20316;-52
2023/01/05 09:36:19;;;;;;;832.17;363.90;;;;;;;;;;5011929;28;20326;-52
2023/01/05 09:38:50;;;;;;;769.67;340.90;;;;;;;;;;4998536;28;20580;-50
2023/01/05 09:41:36;;;;;;;799.23;354.80;;;;;;;;;;5000100;28;21057;-52
2023/01/05 09:44:28;;;;;;;850.67;376.00;;;;;;;;;;4999310;28;20223;-51
2023/01/05 09:46:55;;;;;;;749.50;326.53;;;;;;;;;;5006650;28;20345;-52
2023/01/05 09:49:22;;;;;;;761.03;336.73;;;;;;;;;;5010724;28;20235;-52
2023/01/05 09:51:50;;;;;;;814.80;364.50;;;;;;;;;;4997166;28;20219;-52
2023/01/05 09:54:21;;;;;;;925.27;432.53;;;;;;;;;;5002785;28;20259;-51
2023/01/05 09:56:48;;;;;;;834.57;377.10;;;;;;;;;;5008346;28;20662;-49
2023/01/05 09:59:18;;;;;;;784.67;355.40;;;;;;;;;;4988613;28;20387;-52
2023/01/05 10:01:45;;;;;;;843.10;383.40;;;;;;;;;;4997368;28;21639;-52
2023/01/05 10:04:16;;;;;;;893.17;411.80;;;;;;;;;;4970288;28;20183;-52
2023/01/05 10:06:44;;;;;;;772.63;340.60;;;;;;;;;;5008765;28;20215;-51
2023/01/05 10:09:14;;;;;;;817.40;363.00;;;;;;;;;;4990905;28;20762;-51
2023/01/05 10:14:31;;;;;;;783.00;343.00;;;;;;;;;;4991185;28;20437;-50
2023/01/05 10:16:57;;;;;;;763.70;323.70;;;;;;;;;;5007779;28;20251;-51
2023/01/05 10:19:24;;;;;;;829.03;370.87;;;;;;;;;;5013486;28;20219;-52
2023/01/05 10:22:22;;;;;;;729.23;326.77;;;;;;;;;;5016012;28;20620;-51
2023/01/05 10:25:02;;;;;;;790.27;359.93;;;;;;;;;;4987909;28;20322;-51
2023/01/05 10:27:34;;;;;;;745.30;319.60;;;;;;;;;;4995022;28;20322;-50
2023/01/05 10:30:20;;;;;;;768.50;341.20;;;;;;;;;;5013592;28;20369;-51
2023/01/05 10:33:00;;;;;;;762.10;344.33;;;;;;;;;;5011376;28;20219;-50
2023/01/05 10:35:45;;;;;;;769.87;341.50;;;;;;;;;;5010257;28;20644;-50
2023/01/05 10:38:26;;;;;;;827.63;369.47;;;;;;;;;;5015032;28;20233;-51
2023/01/05 10:41:10;;;;;;;772.93;347.87;;;;;;;;;;5010088;28;20956;-51
2023/01/05 10:44:00;;;;;;;808.00;357.23;;;;;;;;;;5007509;28;20225;-52
2023/01/05 10:46:26;;;;;;;754.63;341.00;;;;;;;;;;5015062;28;20549;-50
2023/01/05 10:48:52;;;;;;;776.77;346.77;;;;;;;;;;5013802;28;20215;-50
2023/01/05 10:51:18;;;;;;;793.13;356.53;;;;;;;;;;5011102;28;20679;-50
2023/01/05 10:53:45;;;;;;;841.60;385.10;;;;;;;;;;4990739;28;20440;-50
2023/01/05 10:56:16;;;;;;;832.37;375.60;;;;;;;;;;5004091;28;20741;-51
2023/01/05 10:58:43;;;;;;;788.27;357.30;;;;;;;;;;4999850;28;20588;-51
2023/01/05 11:01:24;;;;;;;880.60;397.70;;;;;;;;;;5007278;28;20188;-50
2023/01/05 11:03:53;;;;;;;804.67;355.17;;;;;;;;;;4994791;28;20853;-51
2023/01/05 11:06:21;;;;;;;730.57;329.40;;;;;;;;;;5006082;28;20212;-50
2023/01/05 11:08:47;;;;;;;831.83;379.37;;;;;;;;;;5023548;28;20592;-51
2023/01/05 11:11:21;;;;;;;879.23;407.57;;;;;;;;;;4996311;28;20544;-50
2023/01/05 11:13:48;;;;;;;847.80;381.63;;;;;;;;;;4995906;28;20180;-50
2023/01/05 11:16:15;;;;;;;910.03;415.33;;;;;;;;;;4975941;28;20184;-50
2023/01/05 11:18:47;;;;;;;848.57;383.80;;;;;;;;;;4990789;28;20233;-50
2023/01/05 11:21:16;;;;;;;878.43;394.90;;;;;;;;;;4980436;28;20211;-50
2023/01/05 11:23:44;;;;;;;822.23;376.37;;;;;;;;;;4989362;28;20211;-50
2023/01/05 11:26:20;;;;;;;846.93;383.33;;;;;;;;;;4992988;28;20255;-49
2023/01/05 11:28:56;;;;;;;751.07;318.30;;;;;;;;;;5011860;23;20659;-55
2023/01/05 11:31:22;;;;;;;704.17;294.97;;;;;;;;;;4978211;28;20279;-56
2023/01/05 11:33:55;;;;;;;687.77;285.97;;;;;;;;;;4941573;28;20571;-55
2023/01/05 11:36:21;;;;;;;703.27;295.67;;;;;;;;;;4959440;28;20209;-55
2023/01/05 11:38:51;;;;;;;745.67;314.60;;;;;;;;;;4959174;28;20614;-55
2023/01/05 11:41:17;;;;;;;707.33;292.40;;;;;;;;;;4966821;28;20264;-55
2023/01/05 11:43:46;;;;;;;749.83;325.77;;;;;;;;;;4956406;28;20221;-55
2023/01/05 11:46:14;;;;;;;739.27;324.13;;;;;;;;;;4961005;28;20266;-55
2023/01/05 11:48:46;;;;;;;660.87;268.83;;;;;;;;;;4959216;28;20205;-55
2023/01/05 11:51:32;;;;;;;682.73;277.40;;;;;;;;;;4967991;28;20239;-55
2023/01/05 11:54:01;;;;;;;681.17;287.23;;;;;;;;;;4968897;28;20482;-55
2023/01/05 11:56:27;;;;;;;716.53;300.03;;;;;;;;;;4953360;28;20460;-55
2023/01/05 11:58:56;;;;;;;719.77;303.63;;;;;;;;;;4957295;28;20229;-55
2023/01/05 12:01:33;;;;;;;733.20;309.37;;;;;;;;;;4962643;28;20312;-55
2023/01/05 12:04:03;;;;;;;667.87;286.57;;;;;;;;;;4956041;28;20661;-55
2023/01/05 12:06:48;;;;;;;660.87;270.83;;;;;;;;;;4950225;28;20286;-55
2023/01/05 12:09:14;;;;;;;681.83;270.07;;;;;;;;;;4953136;28;20221;-55
2023/01/05 12:11:52;;;;;;;747.57;315.97;;;;;;;;;;4957439;28;20555;-56
2023/01/05 12:14:24;;;;;;;655.03;269.20;;;;;;;;;;4969457;28;20271;-55
2023/01/05 12:16:54;;;;;;;664.70;273.23;;;;;;;;;;4965476;28;20205;-55
2023/01/05 12:19:37;;;;;;;773.40;338.53;;;;;;;;;;4965943;28;20554;-55
2023/01/05 12:22:13;;;;;;;817.47;343.97;;;;;;;;;;4960374;28;20216;-55
2023/01/05 12:24:44;;;;;;;761.20;322.27;;;;;;;;;;4963626;28;20292;-55
2023/01/05 12:27:34;;;;;;;751.43;316.37;;;;;;;;;;4969338;28;20489;-55
2023/01/05 12:30:03;;;;;;;663.17;285.40;;;;;;;;;;4934164;28;20238;-54
2023/01/05 12:32:48;;;;;;;698.00;304.67;;;;;;;;;;4956890;28;20216;-54
2023/01/05 12:35:37;;;;;;;824.00;367.60;;;;;;;;;;4969413;28;20884;-54
2023/01/05 12:38:12;;;;;;;710.43;305.27;;;;;;;;;;4967238;28;20311;-54
2023/01/05 12:40:54;;;;;;;676.23;278.67;;;;;;;;;;4967912;28;20203;-55
2023/01/05 12:43:40;;;;;;;709.27;300.33;;;;;;;;;;4985805;28;20473;-55
2023/01/05 12:46:06;;;;;;;814.57;364.83;;;;;;;;;;4948285;28;20260;-55
2023/01/05 12:48:32;;;;;;;711.40;298.97;;;;;;;;;;4980763;28;20217;-55
2023/01/05 12:51:06;;;;;;;669.30;276.17;;;;;;;;;;4991676;28;20205;-55
2023/01/05 12:53:52;;;;;;;763.07;321.27;;;;;;;;;;4991818;28;20201;-55
2023/01/05 12:56:27;;;;;;;731.23;307.70;;;;;;;;;;4971947;28;20236;-55
2023/01/05 12:58:56;;;;;;;668.77;280.77;;;;;;;;;;4991164;28;20251;-55
2023/01/05 13:01:27;;;;;;;698.90;287.10;;;;;;;;;;4991427;28;20189;-55
2023/01/05 13:03:59;;;;;;;674.50;282.57;;;;;;;;;;4993207;28;20268;-55
2023/01/05 13:06:26;;;;;;;677.67;289.20;;;;;;;;;;4995866;28;20581;-55
2023/01/05 13:08:55;;;;;;;682.73;284.43;;;;;;;;;;4986958;28;20714;-55
2023/01/05 13:11:23;;;;;;;697.43;288.57;;;;;;;;;;4989625;28;20221;-55
2023/01/05 13:13:55;;;;;;;677.03;280.07;;;;;;;;;;4989223;28;20243;-55
2023/01/05 13:16:23;;;;;;;685.23;284.57;;;;;;;;;;4991355;28;22148;-55
2023/01/05 13:18:55;;;;;;;689.90;285.07;;;;;;;;;;4997452;28;20558;-55
2023/01/05 13:21:22;;;;;;;682.30;287.63;;;;;;;;;;4990526;28;20639;-55
2023/01/05 13:23:51;;;;;;;613.03;249.63;;;;;;;;;;4991674;28;20828;-55
2023/01/05 13:26:18;;;;;;;678.43;278.07;;;;;;;;;;4997647;28;20232;-55
2023/01/05 13:28:48;;;;;;;651.17;267.50;;;;;;;;;;4996403;28;20661;-55
2023/01/05 13:31:26;;;;;;;755.70;318.67;;;;;;;;;;4989276;28;20384;-55
2023/01/05 13:34:07;;;;;;;688.23;281.77;;;;;;;;;;4989848;28;20952;-55
2023/01/05 13:36:37;;;;;;;708.43;290.60;;;;;;;;;;4984593;28;20846;-55
2023/01/05 13:39:21;;;;;;;780.40;324.00;;;;;;;;;;4973879;28;20927;-55
2023/01/05 13:41:57;;;;;;;696.27;286.23;;;;;;;;;;4983617;28;20248;-55
2023/01/05 13:44:35;;;;;;;695.43;286.40;;;;;;;;;;4993284;28;20569;-54
2023/01/05 13:47:23;;;;;;;819.47;353.03;;;;;;;;;;4972266;28;20298;-54
2023/01/05 13:49:52;;;;;;;736.67;303.13;;;;;;;;;;4976676;28;20315;-55
2023/01/05 13:52:30;;;;;;;799.83;349.47;;;;;;;;;;4980033;28;20208;-54
2023/01/05 13:55:00;;;;;;;704.83;308.20;;;;;;;;;;4978730;28;20208;-55
2023/01/05 13:57:28;;;;;;;662.33;274.90;;;;;;;;;;4990752;28;20284;-55
2023/01/05 13:59:59;;;;;;;727.53;303.63;;;;;;;;;;4954715;28;20865;-55
2023/01/05 14:02:36;;;;;;;727.60;296.43;;;;;;;;;;4963878;28;20302;-54
2023/01/05 14:05:03;;;;;;;724.27;294.30;;;;;;;;;;4977769;28;20212;-55
2023/01/05 14:07:29;;;;;;;720.90;296.33;;;;;;;;;;4962534;28;20585;-54
2023/01/05 14:09:57;;;;;;;688.97;278.10;;;;;;;;;;4972248;28;20294;-54
2023/01/05 14:12:25;;;;;;;676.57;270.40;;;;;;;;;;4989208;28;20227;-55
2023/01/05 14:15:00;;;;;;;731.13;296.23;;;;;;;;;;4986224;28;20219;-54
2023/01/05 14:17:44;;;;;;;875.67;375.30;;;;;;;;;;4959934;28;20299;-54
2023/01/05 14:20:29;;;;;;;675.93;271.80;;;;;;;;;;4980201;28;20563;-54
2023/01/05 14:22:56;;;;;;;755.13;305.23;;;;;;;;;;4971411;28;20239;-54
2023/01/05 14:25:42;;;;;;;731.40;292.90;;;;;;;;;;4972829;28;20240;-54
2023/01/05 14:28:23;;;;;;;727.53;303.83;;;;;;;;;;4979843;28;20200;-54
2023/01/05 14:30:50;;;;;;;804.47;340.80;;;;;;;;;;4937186;28;20541;-55
2023/01/05 14:33:18;;;;;;;695.43;285.80;;;;;;;;;;4976490;28;20212;-55
2023/01/05 14:35:44;;;;;;;693.17;287.07;;;;;;;;;;4972674;28;20337;-54
2023/01/05 14:38:13;;;;;;;802.40;341.03;;;;;;;;;;4956950;28;20237;-55
2023/01/05 14:40:42;;;;;;;738.27;306.93;;;;;;;;;;4959073;28;20247;-55
2023/01/05 14:43:20;;;;;;;822.03;355.10;;;;;;;;;;4961376;28;20212;-55
2023/01/05 14:45:56;;;;;;;799.67;328.87;;;;;;;;;;4967630;28;20250;-55